logo
App data

Ashbourne

Store | Hub | SteamDB | Site
Developer: Endemic Interactive Publisher: Endemic Interactive
Genre: Violent, Action, Adventure, RPG
Languages: English
Tags: Adventure (24), Action (23), RPG (22), Violent (21)
Category: Single-player, Steam Achievements, Steam Trading Cards, Partial Controller Support, Steam Cloud
Release date: Jan 19, 2017
Price: $1.99
Owners: 0 .. 20,000
Followers: 0
Playtime total: 03:01 (average) 03:36 (median)

Steam Spy is still in beta, so expect major bugs.

Owners data:

Access restricted.

This feature is only available to users with special access rights. Sorry.

If you want to proceed, you need to register or log in first and then back Steam Spy on Patreon. Look for Indie or Pro pledge.

Don't forget to use the same email as on Steam Spy!

Audience in 2 weeks:

Access restricted.

This feature is only available to users with special access rights. Sorry.

If you want to proceed, you need to register or log in first and then back Steam Spy on Patreon. Look for Indie or Pro pledge.

Don't forget to use the same email as on Steam Spy!

Peak daily concurrent players:

CCU data courtesy of SteamDB. Used with permission.

Hourly concurrent players:

Daily Twitch stats:

Hourly Twitch stats:

YouTube:

The views data is based on top 50 videos uploaded last week. Actual number of views might be more than the number shown.

The displayed number of videos uploaded yesterday is limited to 50, so if there were more videos uploaded, the number will still show 50.

If the game has commonly used word as its name (like "FEAR" or "Volume") its number of Youtube views might be wrong.

Games similar to this one:

# Game Release date
Price
Score rank
(Userscore / Metascore)
Owners
Players
Playtime (Median)
1 Little Big Adventure 2 Oct 20, 2015 $3.9999% (98%)0 .. 20,0000%00:00 (00:00)
2 Seven Kingdoms: Ancient Adversaries Mar 22, 2016 $5.99N/A (N/A)0 .. 20,0000%00:00 (00:00)
3 Militia Dec 2, 2015 $5.9995% (96%)0 .. 20,0000%00:00 (00:00)
4 Bleed 2 Feb 8, 2017 $5.9995% (96%/83%)0 .. 20,0000%00:00 (00:00)
5 Imperium Galactica Mar 1, 1997 $4.99N/A (N/A)0 .. 20,0000%00:00 (00:00)
6 Total Annihilation Dec 18, 2015 $4.9995% (96%/86%)50,000 .. 100,0000%00:00 (00:00)
7 Templar Battleforce Sep 21, 2015 $9.9993% (95%)20,000 .. 50,0000%00:00 (00:00)
8 Hegemony Gold: Wars of Ancient Greece Mar 30, 2012 $14.9993% (95%)20,000 .. 50,0000%00:00 (00:00)
9 Supercharged Robot VULKAISER Jun 4, 2015 $4.9993% (95%)20,000 .. 50,0000%00:00 (00:00)
10 War of the Human Tanks - ALTeR Feb 13, 2015 $3.8993% (95%)0 .. 20,0000%00:00 (00:00)
11 Disney's Treasure Planet: Battle of Procyon Feb 24, 2015 $9.9993% (95%)0 .. 20,0000%00:00 (00:00)
12 The Dishwasher: Vampire Smile May 12, 2017 $9.9993% (95%)0 .. 20,0000%00:00 (00:00)
13 Chicken Invaders 2 Mar 4, 2016 $3.9993% (95%)0 .. 20,0003.13%00:01 (00:00)
14 Flywrench Aug 24, 2015 $6.9993% (95%)0 .. 20,0000%00:00 (00:00)
15 JUJU Dec 10, 2014 $19.99N/A (N/A/65%)0 .. 20,0000%00:00 (00:00)
16 The Original Strife: Veteran Edition Dec 12, 2014 $9.9990% (94%)50,000 .. 100,0001.89%01:39 (01:39)
17 Letter Quest: Grimm's Journey Remastered Aug 5, 2015 $7.9990% (94%)50,000 .. 100,0001.32%02:36 (01:43)
18 Adventure in the Tower of Flight Dec 23, 2015 $4.99N/A (N/A)0 .. 20,0000%00:00 (00:00)
19 Neon Chrome Apr 28, 2016 $14.9990% (94%/74%)200,000 .. 500,0000.46%00:08 (00:05)
20 Max: The Curse of Brotherhood May 21, 2014 $14.9990% (94%)50,000 .. 100,0000%00:00 (00:00)
21 Majesty Gold HD Sep 4, 2009 $9.9990% (94%)100,000 .. 200,0000%00:00 (00:00)
22 Stick it to The Man! Dec 13, 2013 $7.9990% (94%/83%)20,000 .. 50,0000%00:00 (00:00)
23 IS Defense Apr 19, 2016 $5.9990% (94%/50%)20,000 .. 50,0000%00:00 (00:00)
24 Audio Arena Jul 25, 2016 $6.99N/A (N/A)0 .. 20,0000%00:00 (00:00)
25 Sayonara Umihara Kawase Oct 5, 2015 $14.9990% (94%)0 .. 20,0004.35%06:06 (02:02)
26 123 Slaughter Me Street 2 Oct 31, 2016 $4.9987% (93%)0 .. 20,0000%00:00 (00:00)
27 Anarcute Jul 12, 2016 $14.9987% (93%/79%)0 .. 20,0000%00:00 (00:00)
28 Pharaoh Rebirth+ Mar 17, 2016 $9.9987% (93%)0 .. 20,0007.14%04:32 (01:30)
29 Battle Bruise Apr 22, 2017 $0.4987% (93%)20,000 .. 50,0002%02:32 (01:49)
30 Sam & Max 103: The Mole, the Mob and the Meatball Jun 15, 2007 N/A87% (93%)0 .. 20,0000%00:00 (00:00)
31 Kick Ass Commandos Nov 17, 2016 $9.9987% (93%)20,000 .. 50,0000%00:00 (00:00)
32 Handsome Mr. Frog Aug 8, 2016 $0.9987% (93%)0 .. 20,0000%00:00 (00:00)
33 Major Mayhem Feb 24, 2014 $4.9987% (93%)20,000 .. 50,0000%00:00 (00:00)
34 Eufloria HD Oct 14, 2014 $14.9987% (93%)200,000 .. 500,0000.32%00:02 (00:00)
35 Run or Die Dec 11, 2014 $4.9987% (93%)0 .. 20,0000%00:00 (00:00)
36 Star Trek : 25th Anniversary May 7, 2015 $9.9987% (93%)0 .. 20,0000%00:00 (00:00)
37 Guns, Gore & Cannoli Apr 30, 2015 $9.9987% (93%/74%)50,000 .. 100,0004%00:28 (00:10)
38 Mighty Switch Force! Hyper Drive Edition Jun 25, 2015 $9.9987% (93%/85%)0 .. 20,0000%00:00 (00:00)
39 Bleed Jul 3, 2013 $1.9987% (93%)100,000 .. 200,0000%00:00 (00:00)
40 Zeus + Poseidon Dec 15, 2016 $4.9983% (92%)50,000 .. 100,0000%00:00 (00:00)
41 Knightmare Tower Jun 16, 2014 $3.9983% (92%)0 .. 20,0000%00:00 (00:00)
42 Disney G-Force Oct 6, 2014 $19.9983% (92%/61%)0 .. 20,0000%00:00 (00:00)
43 Ittle Dew Jul 23, 2013 $9.9983% (92%/67%)100,000 .. 200,0000%00:00 (00:00)
44 Miracle Fly Oct 26, 2015 $7.99N/A (N/A)20,000 .. 50,0000%00:00 (00:00)
45 Gary Grigsby's War in the East Jul 9, 2015 $79.9983% (92%)0 .. 20,0000%00:00 (00:00)
46 Tallowmere Mar 3, 2015 $3.9983% (92%)20,000 .. 50,0000%00:00 (00:00)
47 Great Big War Game Aug 28, 2012 $6.99N/A (N/A)0 .. 20,0000%00:00 (00:00)
48 Wars and Warriors: Joan of Arc Sep 3, 2015 $6.9983% (92%/60%)0 .. 20,0000%00:00 (00:00)
49 Counter Spell Oct 5, 2015 $9.9983% (92%)0 .. 20,0000%00:00 (00:00)
50 Death Ray Manta SE Sep 17, 2015 $1.9983% (92%)20,000 .. 50,0000%00:00 (00:00)
51 Sam & Max 301: The Penal Zone N/A83% (92%)0 .. 20,0000%00:00 (00:00)
52 Ys VI: The Ark of Napishtim Apr 28, 2015 $19.9983% (92%/76%)50,000 .. 100,0000%00:00 (00:00)
53 Shovel Knight: Specter of Torment Apr 5, 2017 $9.9983% (92%)0 .. 20,0000%00:00 (00:00)
54 Clash of Puppets Dec 16, 2014 $4.99N/A (N/A)0 .. 20,0000%00:00 (00:00)
55 Witch and Hero(魔女と勇者) Apr 21, 2016 $4.99N/A (N/A)0 .. 20,0000%00:00 (00:00)
56 Prison Run and Gun Mar 16, 2016 $2.9979% (91%)20,000 .. 50,0000%00:00 (00:00)
57 Flashpoint Campaigns: Red Storm Player's Edition Oct 9, 2013 $49.9979% (91%)0 .. 20,0000%00:00 (00:00)
58 Apocalypse: Party's Over May 30, 2016 $4.9979% (91%)0 .. 20,0000%00:00 (00:00)
59 Blue Estate The Game Apr 8, 2015 $12.9979% (91%/59%)50,000 .. 100,0000%00:00 (00:00)
60 Weird Hero Nov 18, 2016 $3.9979% (91%)0 .. 20,0000%00:00 (00:00)
61 Quar: Battle for Gate 18 Apr 4, 2016 $19.99N/A (N/A)20,000 .. 50,0000%00:00 (00:00)
62 Codename: Panzers, Phase Two Feb 18, 2016 $14.9979% (91%/80%)20,000 .. 50,0003.7%00:05 (00:01)
63 The Juicer Sep 11, 2015 $0.9979% (91%)20,000 .. 50,0000%00:00 (00:00)
64 Skulls of the Shogun Jul 29, 2013 $9.9979% (91%/72%)100,000 .. 200,0000.54%02:32 (01:41)
65 Knights of Honor Feb 4, 2009 $9.9979% (91%/77%)100,000 .. 200,0001.65%01:04 (00:42)
66 Warrior Kings: Battles May 6, 2014 $9.9979% (91%/64%)20,000 .. 50,0000%00:00 (00:00)
67 Near Death Aug 2, 2016 $14.9979% (91%/70%)20,000 .. 50,0002.86%00:16 (00:05)
68 Momodora III Jul 1, 2014 $1.9979% (91%)50,000 .. 100,0001.79%01:12 (00:48)
69 Kohan II: Kings of War Aug 24, 2011 $9.9979% (91%/81%)20,000 .. 50,0000%00:00 (00:00)
70 Battle Academy 2: Eastern Front Sep 12, 2014 $39.9979% (91%/78%)0 .. 20,0000%00:00 (00:00)
71 Angry Video Game Nerd II: ASSimilation Mar 29, 2016 $9.9979% (91%)20,000 .. 50,0000%00:00 (00:00)
72 The Disney Afternoon Collection Apr 18, 2017 $19.9979% (91%)0 .. 20,0000%00:00 (00:00)
73 Fractured Soul Feb 5, 2015 $9.99N/A (N/A)0 .. 20,0000%00:00 (00:00)
74 Khet 2.0 Oct 1, 2014 $2.4979% (91%)50,000 .. 100,0000%00:00 (00:00)
75 Dominions 4: Thrones of Ascension Dec 5, 2013 $34.9976% (90%)50,000 .. 100,0000%00:00 (00:00)
76 Zombo Buster Rising Oct 2, 2016 $1.9976% (90%)0 .. 20,0001.27%00:32 (00:10)
77 Danmaku Unlimited 3 Mar 9, 2017 $9.9976% (90%)0 .. 20,0000%00:00 (00:00)
78 Sneaky Sneaky Nov 12, 2014 $4.9976% (90%/63%)0 .. 20,0000%00:00 (00:00)
79 Bird Assassin Aug 27, 2014 $1.9976% (90%)100,000 .. 200,0000%00:00 (00:00)
80 Earth Defense Force: Insect Armageddon Dec 14, 2011 $9.9976% (90%/69%)50,000 .. 100,0000.83%03:09 (01:03)
81 Chicken Invaders 3 Jun 8, 2015 $4.9976% (90%)0 .. 20,0002.17%01:22 (00:27)
82 The Magic Circle Jul 9, 2015 $19.9976% (90%/79%)100,000 .. 200,0000%00:00 (00:00)
83 Hyphen Feb 12, 2015 $3.99N/A (N/A)0 .. 20,0000%00:00 (00:00)
84 Retro City Rampage DX Nov 11, 2014 $14.9976% (90%)200,000 .. 500,0000.35%00:10 (00:06)
85 Planet of the Eyes Aug 24, 2015 $9.9976% (90%/66%)50,000 .. 100,0000.66%01:41 (00:33)
86 Battle Dome Jun 8, 2017 $9.9976% (90%)20,000 .. 50,0000%00:00 (00:00)
87 Mayhem Triple Sep 4, 2015 $4.99N/A (N/A)0 .. 20,0000%00:00 (00:00)
88 Amaranthine Apr 6, 2016 $2.99N/A (N/A)0 .. 20,0000%00:00 (00:00)
89 WOLFLAME Apr 21, 2016 $5.99N/A (N/A)0 .. 20,0000%00:00 (00:00)
90 Superstatic Sep 15, 2015 $4.99N/A (N/A)0 .. 20,0000%00:00 (00:00)
91 Grey Cubes May 15, 2015 $0.9976% (90%)20,000 .. 50,0000%00:00 (00:00)
92 Xmas Shooting - Scramble!! Dec 16, 2016 $3.3476% (90%)0 .. 20,0000%00:00 (00:00)
93 Swords and Soldiers HD Dec 2, 2010 $9.9976% (90%)100,000 .. 200,0000.19%01:06 (01:03)
94 MoonBase Commander Feb 6, 2014 $5.9976% (90%/77%)20,000 .. 50,0000%00:00 (00:00)
95 Unholy Heights Oct 4, 2013 $3.9976% (90%)100,000 .. 200,0000.43%00:40 (00:13)
96 Concrete Jungle Sep 23, 2015 $9.9976% (90%/76%)20,000 .. 50,0000%00:00 (00:00)
97 Silent Storm Gold Edition Oct 2, 2013 $9.9973% (89%/83%)200,000 .. 500,0000%00:00 (00:00)
98 Hive Mar 20, 2014 $2.4973% (89%)100,000 .. 200,0002.22%00:14 (00:04)
99 Reverse Crawl Sep 24, 2015 $5.9973% (89%)20,000 .. 50,0000.75%00:05 (00:01)
100 CastleStorm Jul 29, 2013 $9.9973% (89%/73%)100,000 .. 200,0000%00:00 (00:00)
101 Sudden Strike Gold Jan 24, 2001 $5.9973% (89%)20,000 .. 50,0000%00:00 (00:00)
102 Tcheco in the Castle of Lucio Jun 22, 2015 $0.9973% (89%)50,000 .. 100,0000.75%05:04 (03:22)
103 Death's Hangover Jan 20, 2017 $4.9973% (89%)20,000 .. 50,0000%00:00 (00:00)
104 Penguins Arena: Sedna's World Dec 18, 2008 $5.9973% (89%)100,000 .. 200,0000%00:00 (00:00)
105 Wonder Boy: The Dragon's Trap Jun 8, 2017 $19.9973% (89%)20,000 .. 50,0000%00:00 (00:00)
106 Lethe - Episode One Aug 1, 2016 $14.9973% (89%)0 .. 20,0000%00:00 (00:00)
107 House of the Dying Sun Nov 1, 2016 $19.9973% (89%/76%)20,000 .. 50,0000%00:00 (00:00)
108 Battlepillars Gold Edition Apr 28, 2014 $4.9970% (88%)20,000 .. 50,0001.41%07:13 (02:24)
109 SPINGUN Nov 11, 2016 $1.9970% (88%)0 .. 20,0000%00:00 (00:00)
110 Explosionade Sep 23, 2015 $3.99N/A (N/A)0 .. 20,0002.9%00:44 (00:29)
111 Mages of Mystralia May 18, 2017 $19.9970% (88%/74%)20,000 .. 50,0003.85%01:41 (00:33)
112 Viking Squad Oct 4, 2016 $14.9970% (88%)0 .. 20,0000%00:00 (00:00)
113 Cosmic Trip May 24, 2017 $19.9970% (88%)0 .. 20,0000%00:00 (00:00)
114 The Brookhaven Experiment Jul 5, 2016 $19.9970% (88%)50,000 .. 100,0004.44%00:24 (00:15)
115 Kohan: Ahriman's Gift Aug 24, 2011 $9.99N/A (N/A/79%)0 .. 20,0000%00:00 (00:00)
116 The Fall May 30, 2014 $9.9970% (88%/76%)200,000 .. 500,0000.54%02:56 (01:57)
117 Train Valley Sep 16, 2015 $9.9970% (88%/69%)200,000 .. 500,0000.91%01:02 (01:22)
118 TRON 2.0 Oct 10, 2014 $9.9970% (88%/84%)20,000 .. 50,0000%00:00 (00:00)
119 The Deadly Tower of Monsters Jan 19, 2016 $14.9970% (88%/73%)50,000 .. 100,0000%00:00 (00:00)
120 Greed Corp Dec 10, 2010 $9.9970% (88%/76%)200,000 .. 500,0000%00:00 (00:00)
121 Anodyne Mar 22, 2013 $9.9970% (88%/75%)100,000 .. 200,0000%00:00 (00:00)
122 Mr. Shifty Apr 13, 2017 $14.9970% (88%)50,000 .. 100,0001.25%02:21 (03:33)
123 Codename: Panzers, Phase One Feb 18, 2016 $14.9967% (87%/81%)20,000 .. 50,0003.7%00:10 (00:03)
124 Knight Squad Nov 16, 2015 $14.9967% (87%)50,000 .. 100,0000%00:00 (00:00)
125 Kohan: Immortal Sovereigns Aug 24, 2011 $9.99N/A (N/A/87%)0 .. 20,0000%00:00 (00:00)
126 Alien Robot Monsters Sep 9, 2015 $5.9967% (87%)0 .. 20,0000%00:00 (00:00)
127 Lethal VR Nov 8, 2016 $14.9967% (87%/66%)0 .. 20,0000%00:00 (00:00)
128 Sang-Froid - Tales of Werewolves Apr 5, 2013 Free67% (87%/79%)200,000 .. 500,0000.17%00:01 (00:00)
129 Time Rifters Oct 21, 2014 $9.9967% (87%)0 .. 20,0000%00:00 (00:00)
130 Avoid - Sensory Overload Apr 8, 2014 $4.9967% (87%)20,000 .. 50,0002.56%06:44 (02:14)
131 Blacksea Odyssey Jun 1, 2016 $9.9967% (87%/74%)20,000 .. 50,0000%00:00 (00:00)
132 Shadow Blade: Reload Aug 10, 2015 $5.2467% (87%/70%)20,000 .. 50,0000%00:00 (00:00)
133 Disney Princess: My Fairytale Adventure Oct 6, 2014 $19.9965% (86%)0 .. 20,0000%00:00 (00:00)
134 Guards Aug 19, 2016 $4.9965% (86%/49%)0 .. 20,0000%00:00 (00:00)
135 Slash or Die Jun 3, 2016 $2.9965% (86%)20,000 .. 50,0000.42%00:01 (00:00)
136 Warlock - Master of the Arcane May 8, 2012 $24.9965% (86%/71%)500,000 .. 1,000,0000%00:00 (00:00)
137 Civilization IV: Warlords Apr 6, 2007 $4.9965% (86%/84%)1,000,000 .. 2,000,0000%00:00 (00:00)
138 Arcane Sorcery Sep 15, 2015 $4.99N/A (N/A)0 .. 20,0000%00:00 (00:00)
139 Star Ruler Sep 20, 2010 $9.9965% (86%)100,000 .. 200,0000%00:00 (00:00)
140 Steel Rain Dec 3, 2015 $9.9965% (86%)0 .. 20,0000%00:00 (00:00)
141 Out of Ammo Sep 14, 2016 $14.9965% (86%)20,000 .. 50,0000%00:00 (00:00)
142 Meltdown Jun 5, 2014 $6.9965% (86%)50,000 .. 100,0000.76%07:07 (02:22)
143 Rebuild 3: Gangs of Deadsville May 29, 2015 $14.9965% (86%/75%)100,000 .. 200,0000%00:00 (00:00)
144 Final Exam Nov 5, 2013 $9.9965% (86%/66%)100,000 .. 200,0000.4%00:26 (00:08)
145 Burnstar Mar 18, 2015 $4.99N/A (N/A)0 .. 20,0000%00:00 (00:00)
146 Super Chibi Knight Jun 24, 2015 $4.9965% (86%)20,000 .. 50,0000%00:00 (00:00)
147 2 Ninjas 1 Cup Feb 3, 2017 $0.9962% (85%)0 .. 20,0000%00:00 (00:00)
148 VelocityUltra Dec 12, 2013 $9.9962% (85%)50,000 .. 100,0000.63%00:16 (00:05)
149 Battle Academy Apr 16, 2014 $14.9962% (85%)20,000 .. 50,0000%00:00 (00:00)
150 Western 1849 Reloaded Feb 10, 2017 $4.9962% (85%)0 .. 20,0001.69%00:01 (00:00)
151 ENSLAVED: Odyssey to the West Premium Edition Oct 24, 2013 $19.9962% (85%/70%)200,000 .. 500,0000.16%00:01 (00:00)
152 Interloper May 21, 2015 Free62% (85%/77%)50,000 .. 100,0000.32%02:21 (00:47)
153 ShootMania Storm Apr 10, 2013 $19.9962% (85%/76%)50,000 .. 100,0001.54%00:04 (00:01)
154 Age of Wonders Shadow Magic Oct 2010 $9.9962% (85%/82%)100,000 .. 200,0000%00:00 (00:00)
155 Rooks Keep Dec 5, 2014 $7.99N/A (N/A)20,000 .. 50,0000%00:00 (00:00)
156 Bionic Dues Oct 8, 2013 $1.9962% (85%/71%)200,000 .. 500,0000.14%00:01 (00:00)
157 Crookz - The Big Heist Aug 25, 2015 $9.9962% (85%/74%)20,000 .. 50,0001.56%00:01 (00:00)
158 HordeZ Apr 29, 2016 $16.9962% (85%)0 .. 20,0008.33%00:08 (00:02)
159 Disney's Chicken Little Feb 24, 2015 $9.9962% (85%)0 .. 20,0000%00:00 (00:00)
160 Faces of War Apr 16, 2014 $4.9962% (85%/67%)20,000 .. 50,0000%00:00 (00:00)
161 Rock 'N' Roll Defense Aug 10, 2016 $0.4962% (85%)100,000 .. 200,0001.12%03:11 (03:08)
162 Azure Striker Gunvolt Aug 28, 2015 $14.9962% (85%)20,000 .. 50,0000%00:00 (00:00)
163 Vintage Year Jan 2, 2015 $2.99N/A (N/A)20,000 .. 50,0000%00:00 (00:00)
164 Gurgamoth Feb 16, 2016 $4.99N/A (N/A)50,000 .. 100,0000.61%00:13 (00:04)
165 Last Knight: Rogue Rider Edition Oct 3, 2014 $1.5962% (85%)20,000 .. 50,0000%00:00 (00:00)
166 Little Big Adventure - Enhanced Edition Oct 20, 2015 $5.9959% (84%)0 .. 20,0000%00:00 (00:00)
167 Battle Group 2 Jun 13, 2014 $7.9959% (84%)50,000 .. 100,0000%00:00 (00:00)
168 GIGA WRECKER Feb 6, 2017 $19.9959% (84%)20,000 .. 50,0000%00:00 (00:00)
169 Foresight Nov 28, 2014 $4.99N/A (N/A)0 .. 20,0000%00:00 (00:00)
170 Oddworld: Stranger's Wrath HD Dec 20, 2010 $9.9959% (84%)200,000 .. 500,0000%00:00 (00:00)
171 Demons with Shotguns Apr 25, 2016 $9.9959% (84%)0 .. 20,0004.35%02:19 (01:31)
172 Brothers in Arms: Earned in Blood Oct 10, 2008 $9.9959% (84%/84%)100,000 .. 200,0000%00:00 (00:00)
173 Droid Assault Jan 9, 2013 $9.9959% (84%)50,000 .. 100,0000%00:00 (00:00)
174 The Men of Yoshiwara: Kikuya Oct 14, 2015 $29.9959% (84%)0 .. 20,0000%00:00 (00:00)
175 Tethered Feb 27, 2017 $24.9959% (84%)0 .. 20,0000%00:00 (00:00)
176 Suicide Guy Jul 14, 2017 $2.9959% (84%)50,000 .. 100,0008.7%02:19 (02:08)
177 Legend (1994) Nov 10, 2015 $4.99N/A (N/A)0 .. 20,0000%00:00 (00:00)
178 Cultures - Northland Mar 26, 2015 $0.4959% (84%)50,000 .. 100,0001.01%03:12 (01:25)
179 Spaceman Sparkles 3 Mar 21, 2016 $4.99N/A (N/A)0 .. 20,0000%00:00 (00:00)
180 Eador. Imperium Jan 27, 2017 $19.9959% (84%)0 .. 20,0000%00:00 (00:00)
181 One Troll Army May 19, 2016 Free59% (84%)200,000 .. 500,0000%00:00 (00:00)
182 Ceville Feb 27, 2009 $5.9957% (83%/73%)20,000 .. 50,0000%00:00 (00:00)
183 Lords of the Realm Dec 3, 2015 $1.99N/A (N/A)0 .. 20,0000%00:00 (00:00)
184 Orbital Gear Aug 7, 2014 $9.9957% (83%/59%)200,000 .. 500,0000.19%00:03 (00:01)
185 Spaceman Sparkles 2 May 20, 2015 $2.99N/A (N/A)0 .. 20,0000%00:00 (00:00)
186 Ittle Dew 2 Nov 15, 2016 $19.9957% (83%)0 .. 20,0000%00:00 (00:00)
187 TY the Tasmanian Tiger 4 Sep 17, 2015 $5.9957% (83%)20,000 .. 50,0000%00:00 (00:00)
188 I Am The Hero Jan 16, 2017 $9.9957% (83%)20,000 .. 50,0000%00:00 (00:00)
189 Ace of Protectors Jun 27, 2016 $1.99N/A (N/A)20,000 .. 50,0000%00:00 (00:00)
190 Enemy Mar 17, 2015 $14.9957% (83%)0 .. 20,0000%00:00 (00:00)
191 12 is Better Than 6 Nov 20, 2015 $9.9957% (83%/74%)200,000 .. 500,0000.69%01:48 (00:43)
192 Weapon of Choice Sep 23, 2015 $4.99N/A (N/A)0 .. 20,0000%00:00 (00:00)
193 Hard Reset Redux Jun 3, 2016 $1.9954% (82%/73%)50,000 .. 100,0002.44%01:41 (01:21)
194 Decisive Campaigns: The Blitzkrieg from Warsaw to Paris Jan 22, 2015 $39.99N/A (N/A)0 .. 20,0000%00:00 (00:00)
195 PixelJunk Shooter Ultimate Oct 21, 2015 $9.9954% (82%)0 .. 20,0000%00:00 (00:00)
196 Fighties Jul 13, 2015 $4.9954% (82%)0 .. 20,0000%00:00 (00:00)
197 Rack N Ruin Sep 1, 2015 $9.99N/A (N/A)0 .. 20,0000%00:00 (00:00)
198 Crush Your Enemies Jul 13, 2016 $9.9954% (82%/63%)20,000 .. 50,0002.17%07:47 (02:35)
199 Ruin of the Reckless Apr 26, 2017 $9.9954% (82%)0 .. 20,0000%00:00 (00:00)
200 Yomawari: Night Alone / 夜廻 Oct 25, 2016 $19.9954% (82%)20,000 .. 50,0000.88%00:20 (00:06)
201 SHOGUN: Total War - Collection Jun 25, 2015 $9.9952% (81%)20,000 .. 50,0000%00:00 (00:00)
202 htoL#NiQ: The Firefly Diary / htoL#NiQ-ホタルノニッキ- May 18, 2016 $9.9952% (81%)20,000 .. 50,0004%00:56 (00:18)
203 Imperium Galactica II Dec 1, 1999 $9.9952% (81%)0 .. 20,0007.69%00:10 (00:03)
204 Toadled Sep 22, 2016 $0.9952% (81%)50,000 .. 100,0000.33%00:11 (00:03)
205 8-Bit Hordes Aug 12, 2016 $14.9952% (81%)20,000 .. 50,0000%00:00 (00:00)
206 Bear Simulator Feb 26, 2016 $14.9952% (81%)0 .. 20,0000%00:00 (00:00)
207 Braveland Mar 17, 2014 $4.9952% (81%)200,000 .. 500,0003.88%03:06 (03:24)
208 Kalaban Dec 29, 2016 $9.99N/A (N/A)0 .. 20,0000%00:00 (00:00)
209 8-Bit Invaders! Dec 16, 2016 $14.9952% (81%)20,000 .. 50,0005.13%01:09 (00:45)
210 ROD: Revolt Of Defense Aug 12, 2016 $0.9952% (81%)20,000 .. 50,0000%00:00 (00:00)
211 In Verbis Virtus Apr 3, 2015 $19.9952% (81%)50,000 .. 100,0000%00:00 (00:00)
212 Donuts'n'Justice Nov 22, 2016 $4.9952% (81%)0 .. 20,0000%00:00 (00:00)
213 Light of Altair Jun 4, 2009 $14.99N/A (N/A/66%)20,000 .. 50,0000%00:00 (00:00)
214 She Wants Me Dead May 13, 2016 $7.99N/A (N/A)0 .. 20,0000%00:00 (00:00)
215 Scribblenauts Unmasked: A DC Comics Adventure Sep 24, 2013 $19.9950% (80%/68%)200,000 .. 500,0000.85%01:37 (01:04)
216 NeonXSZ Feb 22, 2016 $14.9950% (80%)0 .. 20,0000%00:00 (00:00)
217 Zeno Clash 2 Apr 30, 2013 $14.9950% (80%)200,000 .. 500,0000.36%00:38 (00:25)
218 Child Of Ault Jan 24, 2017 $9.99N/A (N/A)0 .. 20,0000%00:00 (00:00)
219 Junk Jack Nov 30, 2016 $14.9950% (80%)0 .. 20,0000%00:00 (00:00)
220 Fleet Command Oct 26, 2006 $3.9950% (80%)50,000 .. 100,0000%00:00 (00:00)
221 Hail to the King: Deathbat Oct 30, 2014 $5.9950% (80%)0 .. 20,0000%00:00 (00:00)
222 Envoy Mar 17, 2016 $4.99N/A (N/A)50,000 .. 100,0000%00:00 (00:00)
223 VERSUS SQUAD Oct 26, 2016 $7.9950% (80%)50,000 .. 100,0000%00:00 (00:00)
224 Graviteam Tactics: Operation Star Feb 11, 2014 $29.9950% (80%)20,000 .. 50,0000%00:00 (00:00)
225 Deathstate: Abyssal Edition Oct 19, 2015 $9.9950% (80%)20,000 .. 50,0000%00:00 (00:00)
226 7,62 High Calibre Apr 30, 2014 $4.9950% (80%)50,000 .. 100,0000.85%00:01 (00:00)
227 Conquest of Elysium 3 Oct 24, 2012 $9.9950% (80%)20,000 .. 50,0000%00:00 (00:00)
228 Enemy Mind Jun 6, 2014 $9.9950% (80%)200,000 .. 500,0000%00:00 (00:00)
229 Defense Zone Jul 14, 2014 $2.99N/A (N/A)0 .. 20,0000%00:00 (00:00)
230 Run Rabbit Run Mar 31, 2016 $3.99N/A (N/A)0 .. 20,0000%00:00 (00:00)
231 Bloodsports.TV Mar 30, 2015 $9.9950% (80%/69%)100,000 .. 200,0001.18%01:31 (01:30)
232 Monday Night Combat Jan 24, 2011 $4.9950% (80%/82%)200,000 .. 500,0000%00:00 (00:00)
233 LocoCycle Feb 14, 2014 $9.9950% (80%)0 .. 20,0000%00:00 (00:00)
234 rymdkapsel Jan 30, 2014 $7.9950% (80%/77%)0 .. 20,0000%00:00 (00:00)
235 Halo: Spartan Assault Apr 4, 2014 $1.4950% (80%/70%)200,000 .. 500,0000.27%03:07 (01:02)
236 Trigger Runners Mar 3, 2016 $1.9950% (80%)0 .. 20,0000%00:00 (00:00)
237 Perimeter Apr 3, 2014 $3.9950% (80%/77%)20,000 .. 50,0000%00:00 (00:00)
238 Legends of Callasia Jun 10, 2016 Free50% (80%)50,000 .. 100,0000%00:00 (00:00)
239 Fate of the World Feb 28, 2011 $9.9948% (79%/70%)50,000 .. 100,0000%00:00 (00:00)
240 Anomaly 2 May 15, 2013 $14.9948% (79%/77%)200,000 .. 500,0000.52%02:16 (02:13)
241 Blockstorm May 21, 2015 $0.9948% (79%)500,000 .. 1,000,0000.32%18:04 (24:03)
242 Forts Apr 19, 2017 $14.9948% (79%/74%)200,000 .. 500,0002.17%02:38 (03:27)
243 TASTEE: Lethal Tactics May 10, 2016 $14.9948% (79%)20,000 .. 50,0001.27%02:31 (00:50)
244 The Legend of Dark Witch Dec 1, 2015 $4.9948% (79%)20,000 .. 50,0000%00:00 (00:00)
245 Toukiden 2 Mar 21, 2017 $59.9948% (79%/73%)20,000 .. 50,0000%00:00 (00:00)
246 Nuclear Dawn Sep 26, 2011 $9.9948% (79%/71%)200,000 .. 500,0000.36%00:32 (00:21)
247 Defense Zone 3 Ultra HD Dec 14, 2016 $2.9948% (79%)20,000 .. 50,0000%00:00 (00:00)
248 Airport Madness: World Edition May 28, 2015 $9.9948% (79%)20,000 .. 50,0000%00:00 (00:00)
249 Protoshift Jan 15, 2016 $0.99N/A (N/A)0 .. 20,0000%00:00 (00:00)
250 Vietnam ‘65 Mar 5, 2015 $9.9948% (79%/81%)20,000 .. 50,0000%00:00 (00:00)
251 Star Ruler 2 Mar 27, 2015 $24.9948% (79%)50,000 .. 100,0000%00:00 (00:00)
252 Ironcast Mar 26, 2015 $14.9948% (79%/75%)20,000 .. 50,0000%00:00 (00:00)
253 Uprising: Join or Die May 19, 2016 $6.99N/A (N/A)0 .. 20,0000%00:00 (00:00)
254 Interplanetary May 12, 2015 N/A48% (79%)100,000 .. 200,0000.58%03:33 (02:14)
255 Jelly Killer Mar 24, 2016 $3.9948% (79%)20,000 .. 50,0001.54%02:11 (00:43)
256 Kung Fu Strike - The Warrior's Rise Jul 24, 2012 $9.9948% (79%)100,000 .. 200,0000.33%216:48 (72:16)
257 Gnomes Vs. Fairies: Greckel's Quest Jul 1, 2016 $9.99N/A (N/A)0 .. 20,0000%00:00 (00:00)
258 Battlevoid: Harbinger Feb 24, 2016 $9.9948% (79%)20,000 .. 50,0004.17%00:16 (00:10)
259 Demolition Inc. Sep 19, 2011 $5.9948% (79%)50,000 .. 100,0000%00:00 (00:00)
260 Gatling Gears Aug 30, 2011 $9.9948% (79%)20,000 .. 50,0000%00:00 (00:00)
261 Fortified Feb 3, 2016 $14.9948% (79%)500,000 .. 1,000,0000.36%27:56 (02:50)
262 Aeon Command Jul 3, 2014 $2.9946% (78%)20,000 .. 50,0000.89%00:01 (00:00)
263 IrreVRsible May 24, 2016 $1.99N/A (N/A)0 .. 20,0000%00:00 (00:00)
264 Tank Destroyer Mar 9, 2017 $2.9946% (78%)20,000 .. 50,0002.08%67:45 (45:10)
265 Fallen Enchantress: Legendary Heroes May 22, 2013 $24.9946% (78%/80%)200,000 .. 500,0000.24%05:09 (01:43)
266 Ironclad Tactics Sep 18, 2013 $14.9946% (78%/69%)50,000 .. 100,0000%00:00 (00:00)
267 Zombie Party Jun 10, 2016 $9.9946% (78%)100,000 .. 200,0000%00:00 (00:00)
268 Zombie Killtime Aug 4, 2015 $1.99N/A (N/A)0 .. 20,0000%00:00 (00:00)
269 Age of Wonders Oct 2010 $5.9946% (78%)100,000 .. 200,0000%00:00 (00:00)
270 The Last Tinker: City of Colors May 12, 2014 $9.9946% (78%/72%)50,000 .. 100,0001.1%01:17 (00:41)
271 Afghanistan '11 Mar 23, 2017 $29.9946% (78%)0 .. 20,0000%00:00 (00:00)
272 Starscape Nov 3, 2008 $7.9946% (78%)0 .. 20,0005.26%00:07 (00:02)
273 Mold on Pizza Sep 25, 2015 $5.9946% (78%)0 .. 20,0002.78%01:10 (00:23)
274 Convoy Apr 21, 2015 $14.9946% (78%/72%)50,000 .. 100,0000.8%00:29 (00:09)
275 Cluck Yegger in Escape From The Planet of The Poultroid Nov 9, 2015 $2.99N/A (N/A)0 .. 20,0000%00:00 (00:00)
276 SAMURAI WARRIORS 4-II Sep 29, 2015 $49.9946% (78%)20,000 .. 50,0005.77%01:21 (01:18)
277 PAC-MAN and the Ghostly Adventures Oct 29, 2013 $19.9946% (78%)0 .. 20,0004%00:25 (00:08)
278 After The End: The Harvest Jun 2, 2017 $4.9946% (78%)20,000 .. 50,0000%00:00 (00:00)
279 Deadly 30 Jan 8, 2014 $4.9946% (78%)100,000 .. 200,0000.76%04:33 (01:31)
280 Dyna Bomb May 13, 2016 $4.99N/A (N/A)0 .. 20,0000%00:00 (00:00)
281 Xenocide Aug 28, 2015 $2.99N/A (N/A)0 .. 20,0000%00:00 (00:00)
282 Imperial Glory Apr 11, 2014 $4.9946% (78%/69%)200,000 .. 500,0000.74%00:01 (00:00)
283 Curse of the Crescent Isle DX Aug 21, 2015 $0.9944% (77%)0 .. 20,0000%00:00 (00:00)
284 Sky Gamblers: Storm Raiders Jan 7, 2015 $9.9944% (77%)0 .. 20,0000%00:00 (00:00)
285 King of Dragon Pass Jul 28, 2015 $11.9944% (77%)20,000 .. 50,0000%00:00 (00:00)
286 Section 8: Prejudice May 4, 2011 $9.9944% (77%/77%)100,000 .. 200,0000%00:00 (00:00)
287 Cladun Returns: This Is Sengoku! / クラシックダンジョン 戦国 Jun 6, 2017 $19.99N/A (N/A)0 .. 20,0000%00:00 (00:00)
288 Catch Me Sep 5, 2016 $5.9944% (77%)0 .. 20,0000%00:00 (00:00)
289 McDROID Sep 5, 2014 $9.9944% (77%)0 .. 20,0000%00:00 (00:00)
290 Ascension: Deckbuilding Game Dec 16, 2014 $9.9944% (77%)20,000 .. 50,00010.71%01:58 (01:49)
291 Age of Wonders II: The Wizard's Throne Oct 2010 $9.9944% (77%/86%)50,000 .. 100,0000%00:00 (00:00)
292 Warhammer 40,000: Armageddon Nov 26, 2014 $19.9944% (77%/68%)20,000 .. 50,0000%00:00 (00:00)
293 Ninjahtic Jul 6, 2015 $1.9944% (77%)0 .. 20,0000%00:00 (00:00)
294 A Blind Legend Apr 7, 2016 $6.9944% (77%)0 .. 20,0000%00:00 (00:00)
295 Legends of Eisenwald Jul 2, 2015 $19.9944% (77%/71%)100,000 .. 200,0000.39%06:12 (02:04)
296 Total Extreme Wrestling 2010 Mar 19, 2015 $14.9944% (77%)0 .. 20,0000%00:00 (00:00)
297 Left Alone Apr 28, 2016 $3.4944% (77%)0 .. 20,0008.33%00:57 (00:19)
298 Disney Infinity 3.0: Gold Edition Dec 9, 2016 $29.9944% (77%)0 .. 20,0000%00:00 (00:00)
299 Anomaly Warzone Earth Mobile Campaign Nov 6, 2013 $4.9944% (77%)100,000 .. 200,0001.04%02:35 (02:20)
300 Imperium Romanum Gold Edition Nov 25, 2008 $9.9944% (77%/63%)100,000 .. 200,0000.54%00:06 (00:02)
301 The Settlers: Heritage of Kings Jul 22, 2008 $9.9944% (77%/58%)20,000 .. 50,0000%00:00 (00:00)
302 GALAK-Z Oct 29, 2015 $19.9944% (77%/78%)200,000 .. 500,0000.55%05:59 (03:59)
303 Bloody Good Time Oct 29, 2010 $4.9942% (76%/73%)100,000 .. 200,0000%00:00 (00:00)
304 Ember Sep 9, 2016 $9.9942% (76%/70%)20,000 .. 50,0000%00:00 (00:00)
305 Incoming Forces Mar 6, 2014 $2.9942% (76%/67%)100,000 .. 200,0000%00:00 (00:00)
306 Carmageddon: Max Damage Oct 27, 2016 $16.9942% (76%)100,000 .. 200,0002.21%02:23 (03:23)
307 Arkshot May 19, 2016 $4.99N/A (N/A)0 .. 20,0000%00:00 (00:00)
308 Jim Power -The Lost Dimension Sep 30, 2015 $4.99N/A (N/A)0 .. 20,0000%00:00 (00:00)
309 Cashtronauts Aug 31, 2016 $2.99N/A (N/A)0 .. 20,0000%00:00 (00:00)
310 Deadlings: Rotten Edition Nov 11, 2014 $3.9942% (76%)50,000 .. 100,0000%00:00 (00:00)
311 Woah Dave! Oct 30, 2014 $4.9942% (76%)0 .. 20,0000%00:00 (00:00)
312 Corgi Warlock Dec 3, 2015 $1.9942% (76%)20,000 .. 50,0000%00:00 (00:00)
313 A Healer Only Lives Twice Jun 2, 2016 $4.9942% (76%)0 .. 20,0000%00:00 (00:00)
314 Gemini: Heroes Reborn Jan 18, 2016 $4.9942% (76%/54%)50,000 .. 100,0000%00:00 (00:00)
315 Star Realms Mar 8, 2016 Free42% (76%)100,000 .. 200,0002.59%02:52 (02:51)
316 Cue Club 2: Pool & Snooker Mar 7, 2016 $18.9942% (76%)0 .. 20,0000%00:00 (00:00)
317 Mysterium: A Psychic Clue Game Jan 12, 2017 $6.9942% (76%)50,000 .. 100,0000.67%00:49 (00:32)
318 Extravaganza Rising Jul 21, 2016 N/AN/A (N/A)20,000 .. 50,0000%00:00 (00:00)
319 GET EVEN Jun 20, 2017 $29.9942% (76%/75%)20,000 .. 50,0000%00:00 (00:00)
320 Blue Solar: Chaos War Jul 21, 2016 $3.9942% (76%)0 .. 20,0000%00:00 (00:00)
321 Battlezone Gold Edition May 11, 2017 $34.9942% (76%)0 .. 20,0000%00:00 (00:00)
322 Olympia Rising Jul 23, 2015 $4.9942% (76%)0 .. 20,0000%00:00 (00:00)
323 Vector Strain Dec 9, 2015 $4.99N/A (N/A)20,000 .. 50,0001.49%00:01 (00:00)
324 Bubsy Two-Fur Dec 17, 2015 $4.9940% (75%)0 .. 20,0000%00:00 (00:00)
325 Victory At Sea Aug 8, 2014 $24.9940% (75%)20,000 .. 50,0000%00:00 (00:00)
326 Star Hammer: The Vanguard Prophecy Jun 4, 2015 $19.9940% (75%/69%)0 .. 20,0000%00:00 (00:00)
327 Fist Puncher Jun 21, 2013 $9.9940% (75%/73%)20,000 .. 50,0000%00:00 (00:00)
328 Rocketbirds 2 Evolution Jan 26, 2017 $9.9940% (75%)20,000 .. 50,0001.75%03:59 (01:19)
329 Out There: Ω Edition Apr 2, 2015 $14.9940% (75%)50,000 .. 100,0000%00:00 (00:00)
330 Civil War II Jul 3, 2014 $39.9940% (75%)0 .. 20,0000%00:00 (00:00)
331 Smithy Jun 3, 2016 $3.99N/A (N/A)50,000 .. 100,0000.35%00:52 (00:17)
332 Platformines Mar 28, 2014 $9.9940% (75%/67%)100,000 .. 200,0000%00:00 (00:00)
333 Battle Mages: Sign of Darkness Jul 24, 2014 $4.9940% (75%)20,000 .. 50,0000%00:00 (00:00)
334 WARSHIFT Oct 12, 2016 $6.4940% (75%)20,000 .. 50,0000%00:00 (00:00)
335 BossConstructor Oct 24, 2016 $14.9940% (75%)0 .. 20,0000%00:00 (00:00)
336 Supreme Ruler 1936 May 9, 2014 $12.9938% (74%)20,000 .. 50,0003.39%01:22 (00:54)
337 Zombie Vikings Dec 7, 2015 $11.9938% (74%/74%)20,000 .. 50,0000%00:00 (00:00)
338 Putrefaction 2: Void Walker May 29, 2017 $0.4938% (74%)0 .. 20,0003.51%02:30 (01:39)
339 Commander: The Great War Jul 25, 2014 $29.9938% (74%)0 .. 20,0000%00:00 (00:00)
340 Hegemony III: Clash of the Ancients Aug 25, 2015 $29.9938% (74%)20,000 .. 50,0000%00:00 (00:00)
341 Viktor Jun 13, 2014 $7.9938% (74%)20,000 .. 50,0000%00:00 (00:00)
342 Assassin's Creed Freedom Cry Feb 25, 2014 $14.9938% (74%)100,000 .. 200,0000%00:00 (00:00)
343 Caravan Sep 30, 2016 $9.9938% (74%)20,000 .. 50,0001.26%01:12 (00:39)
344 Distant Worlds: Universe May 23, 2014 $59.9938% (74%/81%)50,000 .. 100,0000%00:00 (00:00)
345 Master Reboot Oct 29, 2013 $14.9938% (74%/59%)50,000 .. 100,0000%00:00 (00:00)
346 TableTop Soccer Apr 22, 2016 $0.9938% (74%)0 .. 20,0000%00:00 (00:00)
347 Making History: The Great War Jan 29, 2015 $29.9938% (74%)20,000 .. 50,0000%00:00 (00:00)
348 Victory and Glory: Napoleon Mar 17, 2016 $29.9938% (74%)0 .. 20,0000%00:00 (00:00)
349 Hive Jump Jan 18, 2017 $19.9938% (74%)0 .. 20,0000.94%07:56 (02:38)
350 Riddled Corpses Jun 2, 2015 $7.9938% (74%)20,000 .. 50,0000%00:00 (00:00)
351 The First Templar - Steam Special Edition May 12, 2011 $9.9936% (73%/57%)100,000 .. 200,0000%00:00 (00:00)
352 UFO: Aftermath Apr 23, 2014 $3.9936% (73%)50,000 .. 100,0000.91%01:23 (00:27)
353 The Mean Greens - Plastic Warfare Dec 8, 2015 $9.9936% (73%)100,000 .. 200,0000%00:00 (00:00)
354 Cuban Missile Crisis Mar 25, 2015 $4.9936% (73%)20,000 .. 50,0000%00:00 (00:00)
355 Majesty 2 Collection Apr 19, 2011 $4.9936% (73%)200,000 .. 500,0000%00:00 (00:00)
356 Nyheim Jan 31, 2017 $3.9936% (73%)0 .. 20,0000%00:00 (00:00)
357 Hot Tin Roof: The Cat That Wore A Fedora Feb 20, 2015 $14.9936% (73%/66%)100,000 .. 200,0000%00:00 (00:00)
358 FIVE: Champions of Canaan Sep 27, 2016 $3.99N/A (N/A)0 .. 20,0000%00:00 (00:00)
359 Rex Rocket Aug 5, 2014 $4.9936% (73%)20,000 .. 50,0000%00:00 (00:00)
360 Battle Fleet 2 Nov 20, 2014 $14.9936% (73%)20,000 .. 50,0000%00:00 (00:00)
361 Battle Time Sep 29, 2016 $0.9936% (73%)50,000 .. 100,0001.1%04:52 (03:14)
362 Zombillie Apr 29, 2016 $4.9936% (73%)20,000 .. 50,0000.99%01:15 (00:50)
363 Sid Meier’s Ace Patrol Aug 27, 2013 $4.9936% (73%)500,000 .. 1,000,0000.18%00:01 (00:00)
364 Death by Game Show Jan 22, 2016 $9.99N/A (N/A)20,000 .. 50,0000%00:00 (00:00)
365 The Surge May 15, 2017 $11.9936% (73%/72%)100,000 .. 200,0002.35%01:29 (01:07)
366 Disney Planes Oct 6, 2014 $19.99N/A (N/A)0 .. 20,0000%00:00 (00:00)
367 Oddworld: Munch's Oddysee Dec 20, 2010 $4.9935% (72%)200,000 .. 500,0000%00:00 (00:00)
368 King Arthur - The Role-playing Wargame Nov 24, 2009 $9.9935% (72%)200,000 .. 500,0000%00:00 (00:00)
369 Hero Academy Aug 10, 2012 $4.9935% (72%/75%)100,000 .. 200,0000%00:00 (00:00)
370 Pike and Shot : Campaigns Aug 13, 2015 $39.9935% (72%)0 .. 20,0000%00:00 (00:00)
371 Airship Dragoon Aug 26, 2014 $19.99N/A (N/A)0 .. 20,0000%00:00 (00:00)
372 Codex of Victory Mar 16, 2017 $14.9935% (72%)0 .. 20,0000%00:00 (00:00)
373 Wyv and Keep: The Temple of the Lost Idol Aug 8, 2014 $14.99N/A (N/A)20,000 .. 50,0000%00:00 (00:00)
374 LEGO Indiana Jones 2: The Adventure Continues Feb 18, 2010 $19.9935% (72%/66%)50,000 .. 100,0000%00:00 (00:00)
375 Deadnaut Dec 8, 2014 $9.9935% (72%)0 .. 20,0000%00:00 (00:00)
376 Tango Fiesta Sep 24, 2015 $9.99N/A (N/A)20,000 .. 50,0000%00:00 (00:00)
377 Cast of the Seven Godsends - Redux Jul 20, 2015 $9.9935% (72%)20,000 .. 50,0000%00:00 (00:00)
378 Retrovirus Jan 31, 2013 $9.9935% (72%/70%)20,000 .. 50,0000%00:00 (00:00)
379 The Last Federation Apr 18, 2014 $3.9933% (71%/72%)50,000 .. 100,0002.44%00:58 (00:58)
380 Dead Effect 2 May 6, 2016 $2.3933% (71%/53%)100,000 .. 200,0001.55%01:07 (00:57)
381 A.R.E.S.: Extinction Agenda Jan 19, 2011 $4.9933% (71%/68%)100,000 .. 200,0000%00:00 (00:00)
382 ABRACA - Imagic Games Mar 31, 2016 $14.99N/A (N/A)0 .. 20,0000%00:00 (00:00)
383 Cross of the Dutchman Sep 10, 2015 $8.9933% (71%/59%)20,000 .. 50,0000%00:00 (00:00)
384 For The Glory: A Europa Universalis Game Nov 11, 2009 $9.9933% (71%)20,000 .. 50,0000%00:00 (00:00)
385 Banzai Escape Feb 29, 2016 $5.9933% (71%)20,000 .. 50,0000%00:00 (00:00)
386 GUILTY GEAR 2 -OVERTURE- Mar 31, 2016 $19.9933% (71%)20,000 .. 50,0000%00:00 (00:00)
387 Anima Gate of Memories Jun 2, 2016 $19.9933% (71%)20,000 .. 50,0000%00:00 (00:00)
388 Madness Cubed May 12, 2016 $1.9933% (71%)50,000 .. 100,0001.35%01:53 (01:15)
389 Tom Clancy's EndWar Feb 25, 2009 $9.9933% (71%/68%)50,000 .. 100,0000%00:00 (00:00)
390 The Big Elk May 24, 2016 $4.9933% (71%)50,000 .. 100,0000%00:00 (00:00)
391 天使帝國四《Empire of Angels IV》 Dec 15, 2016 $14.9933% (71%)0 .. 20,0000%00:00 (00:00)
392 Warp Mar 21, 2012 $9.9933% (71%)20,000 .. 50,0000%00:00 (00:00)
393 Tharsis Jan 11, 2016 $14.9931% (70%/61%)200,000 .. 500,0000%00:00 (00:00)
394 Diluvion: Resubmerged Feb 2, 2017 $19.9931% (70%/66%)50,000 .. 100,0008.06%02:02 (01:55)
395 Legends of the Universe - StarCore Jul 25, 2016 $3.99N/A (N/A)0 .. 20,0000%00:00 (00:00)
396 Revolution Under Siege Gold Jul 2, 2015 $24.9931% (70%)0 .. 20,0000%00:00 (00:00)
397 Strategy & Tactics: Wargame Collection Apr 22, 2016 $9.9931% (70%)20,000 .. 50,0000%00:00 (00:00)
398 BitMaster Oct 12, 2016 $2.9931% (70%)200,000 .. 500,0000.15%04:48 (01:36)
399 Lux Delux May 1, 2015 $4.9931% (70%)20,000 .. 50,0000%00:00 (00:00)
400 UFO: Aftershock Apr 16, 2014 $3.9930% (69%)20,000 .. 50,0000.93%00:30 (00:10)
401 Little King's Story Aug 5, 2016 $19.9930% (69%/62%)0 .. 20,0000%00:00 (00:00)
402 Jagged Alliance 2 - Wildfire Nov 16, 2012 $6.9930% (69%)200,000 .. 500,0000.37%05:54 (06:09)
403 Incandescent Jun 30, 2015 $0.9930% (69%)20,000 .. 50,0000%00:00 (00:00)
404 Abyss Odyssey Jul 15, 2014 $14.9930% (69%/69%)200,000 .. 500,0000.21%00:01 (00:00)
405 Collapse Apr 11, 2014 $19.9930% (69%)50,000 .. 100,0000%00:00 (00:00)
406 The Superfluous May 19, 2017 $4.99N/A (N/A)0 .. 20,0000%00:00 (00:00)
407 Spud's Quest Jul 31, 2014 $7.99N/A (N/A)0 .. 20,0000%00:00 (00:00)
408 Men of Valor Feb 9, 2016 $9.9930% (69%/71%)0 .. 20,0000%00:00 (00:00)
409 Sol 0: Mars Colonization Jan 15, 2016 $3.9930% (69%)20,000 .. 50,0005.26%01:21 (00:27)
410 Panzer Tactics HD May 22, 2014 $9.9930% (69%/69%)20,000 .. 50,0000%00:00 (00:00)
411 Chronicles of Teddy Apr 2, 2015 $14.9930% (69%)0 .. 20,0000%00:00 (00:00)
412 8-Bit Commando Jun 2, 2014 $2.9930% (69%)50,000 .. 100,0001.32%00:08 (00:04)
413 The Nightmare Cooperative Jul 16, 2014 $4.99N/A (N/A)50,000 .. 100,0000%00:00 (00:00)
414 Escape From Nazi Labs Nov 8, 2016 $0.99N/A (N/A)20,000 .. 50,0000.7%01:33 (00:31)
415 Deadlight: Director's Cut Jun 21, 2016 $11.9930% (69%)100,000 .. 200,0000.7%00:23 (00:14)
416 Hunted: The Demon’s Forge May 30, 2011 $4.9930% (69%/61%)100,000 .. 200,0000.61%00:01 (00:00)
417 Space Colony: Steam Edition Apr 30, 2015 $14.9930% (69%/74%)20,000 .. 50,0001.16%00:01 (00:00)
418 Earth 2160 Apr 1, 2006 $4.9930% (69%/73%)1,000,000 .. 2,000,0000.34%04:27 (04:14)
419 BiT Evolution Jun 9, 2015 $9.99N/A (N/A)50,000 .. 100,0000.71%00:12 (00:04)
420 Othello Mar 19, 2015 $2.4928% (68%)0 .. 20,0000%00:00 (00:00)
421 Wooden Sen'SeY Dec 5, 2013 $9.9928% (68%)20,000 .. 50,0001.14%00:08 (00:02)
422 ManaCollect Apr 17, 2015 $1.7428% (68%)0 .. 20,0000%00:00 (00:00)
423 American Conquest Aug 26, 2011 $4.9928% (68%)50,000 .. 100,0000.97%02:10 (00:43)
424 The Living Dungeon Nov 2, 2015 $9.9928% (68%)0 .. 20,0000%00:00 (00:00)
425 American Conquest: Fight Back Aug 26, 2011 $4.9928% (68%)50,000 .. 100,0000%00:00 (00:00)
426 Scourge of War: Waterloo Nov 19, 2015 $49.9928% (68%)0 .. 20,0000%00:00 (00:00)
427 Bedlam Oct 13, 2015 $12.9928% (68%/54%)100,000 .. 200,0000.31%00:01 (00:00)
428 Royal Defense Nov 10, 2014 $4.9928% (68%)50,000 .. 100,0000.84%03:32 (01:44)
429 The Hive Aug 25, 2016 $9.9928% (68%)20,000 .. 50,0000%00:00 (00:00)
430 YAIBA: NINJA GAIDEN Z Mar 21, 2014 $29.9928% (68%/49%)20,000 .. 50,0000%00:00 (00:00)
431 Sid Meier’s Ace Patrol: Pacific Skies Nov 5, 2013 $4.9928% (68%)500,000 .. 1,000,0000%00:00 (00:00)
432 Space Food Truck Mar 25, 2016 $9.9926% (67%)20,000 .. 50,0000%00:00 (00:00)
433 Anomaly Korea Nov 6, 2013 $4.9926% (67%)100,000 .. 200,0000.47%03:21 (02:13)
434 Survivor Squad: Gauntlets Nov 16, 2015 $4.9926% (67%)20,000 .. 50,0000%00:00 (00:00)
435 Chainsaw Warrior Oct 7, 2013 $4.9926% (67%)100,000 .. 200,0000%00:00 (00:00)
436 Kingdom Wars Apr 1, 2013 Free26% (67%)500,000 .. 1,000,0000.43%00:40 (00:26)
437 Stonerid Aug 15, 2014 $4.9926% (67%)20,000 .. 50,0000.72%08:15 (02:45)
438 Toren May 11, 2015 $9.9926% (67%/57%)50,000 .. 100,0000%00:00 (00:00)
439 Toy Odyssey: The Lost and Found Sep 20, 2016 $14.9926% (67%/66%)20,000 .. 50,0000%00:00 (00:00)
440 Front Defense Jul 7, 2017 $19.9926% (67%/60%)0 .. 20,0000%00:00 (00:00)
441 March of the Eagles Feb 18, 2013 $19.9926% (67%/71%)50,000 .. 100,0001.04%03:30 (01:10)
442 Zombie Camp Jul 31, 2016 $1.99N/A (N/A)0 .. 20,0000%00:00 (00:00)
443 Commander Cool 2 Dec 17, 2015 $2.99N/A (N/A)20,000 .. 50,0000%00:00 (00:00)
444 Urban Pirate Jun 17, 2016 $6.99N/A (N/A)0 .. 20,0004.17%03:01 (01:00)
445 Nomad Fleet Apr 19, 2016 $4.9925% (66%)0 .. 20,0000%00:00 (00:00)
446 Sky To Fly: Faster Than Wind Mar 25, 2016 $3.99N/A (N/A)0 .. 20,0000%00:00 (00:00)
447 Mad Combat Marines Jul 13, 2016 $0.9925% (66%)20,000 .. 50,0001.3%00:09 (00:03)
448 Port Royale 3 May 4, 2012 $14.9925% (66%)200,000 .. 500,0000.53%00:01 (00:00)
449 Sengoku Sep 15, 2011 $9.9925% (66%/70%)100,000 .. 200,0000.69%03:47 (01:15)
450 RISK: Factions Mar 8, 2011 $9.9925% (66%/77%)50,000 .. 100,0000%00:00 (00:00)
451 Assassin’s Creed Chronicles: India Jan 12, 2016 $9.9925% (66%)50,000 .. 100,0000%00:00 (00:00)
452 1849 May 8, 2014 $14.9925% (66%)20,000 .. 50,0000%00:00 (00:00)
453 Toukiden: Kiwami Jun 25, 2015 $59.9925% (66%)20,000 .. 50,0002.78%00:02 (00:00)
454 STANDBY Jan 6, 2017 $7.9925% (66%)20,000 .. 50,0000%00:00 (00:00)
455 Zombie City Defense 2 Aug 19, 2016 $9.9925% (66%)0 .. 20,0000%00:00 (00:00)
456 Scourge: Outbreak Apr 2, 2014 $7.9925% (66%)100,000 .. 200,0000%00:00 (00:00)
457 Quick Slick Deadly Sep 21, 2015 $1.99N/A (N/A)20,000 .. 50,0000%00:00 (00:00)
458 Fair Strike Apr 23, 2015 $3.99N/A (N/A/56%)0 .. 20,0000%00:00 (00:00)
459 Black Hat Cooperative Jul 29, 2016 $9.9925% (66%)0 .. 20,0000%00:00 (00:00)
460 Zombie Tycoon 2: Brainhov's Revenge Dec 9, 2013 $4.9924% (65%)50,000 .. 100,0000%00:00 (00:00)
461 The Seven Years War (1756-1763) Oct 30, 2015 $19.9924% (65%)0 .. 20,0000%00:00 (00:00)
462 Marauder Apr 4, 2014 $9.9924% (65%)50,000 .. 100,0000%00:00 (00:00)
463 Disney Pirates of the Caribbean: At Worlds End Oct 6, 2014 $19.9924% (65%)0 .. 20,0000%00:00 (00:00)
464 Men of War: Condemned Heroes Apr 12, 2012 $7.9924% (65%/57%)100,000 .. 200,0000.54%00:01 (00:00)
465 King Lucas Dec 1, 2016 $4.9924% (65%)20,000 .. 50,0001.01%02:22 (01:34)
466 JET HERO Feb 17, 2017 $2.79N/A (N/A)0 .. 20,0000%00:00 (00:00)
467 Home Wars Jun 13, 2017 $9.9924% (65%)20,000 .. 50,0000%00:00 (00:00)
468 Tom Clancy's Ghost Recon: Future Soldier Jun 26, 2012 $19.9924% (65%/71%)200,000 .. 500,0000.36%04:05 (01:21)
469 Putrefaction Aug 7, 2015 $0.4924% (65%)100,000 .. 200,0000%00:00 (00:00)
470 Ground Breakers Jun 15, 2016 $4.99N/A (N/A)0 .. 20,0000%00:00 (00:00)
471 Link Apr 22, 2016 $4.99N/A (N/A)0 .. 20,0000%00:00 (00:00)
472 Demon's Crystals Apr 21, 2016 $4.99N/A (N/A)0 .. 20,00011.11%07:08 (02:22)
473 Cavern of Time Feb 10, 2017 $3.99N/A (N/A)0 .. 20,0000%00:00 (00:00)
474 Marble Mountain Apr 4, 2016 $4.9923% (64%)0 .. 20,0000%00:00 (00:00)
475 Sid Meier's Railroads! May 4, 2007 $9.9923% (64%/77%)500,000 .. 1,000,0000.22%00:01 (00:00)
476 Masked Forces Nov 23, 2016 $0.9923% (64%)50,000 .. 100,0002.13%00:11 (00:03)
477 Theatre of War 2: Kursk 1943 Jul 9, 2010 $4.9923% (64%)50,000 .. 100,0000%00:00 (00:00)
478 Disney Alice in Wonderland Oct 6, 2014 $19.9923% (64%/63%)0 .. 20,0000%00:00 (00:00)
479 Jagged Alliance: Crossfire Aug 24, 2012 $14.9923% (64%/63%)100,000 .. 200,0000%00:00 (00:00)
480 Frozen Synapse Prime Nov 14, 2014 $24.9923% (64%/83%)100,000 .. 200,0000.43%05:26 (01:48)
481 Blood Knights Nov 13, 2013 $9.9923% (64%)50,000 .. 100,0000.53%00:01 (00:00)
482 Warlock 2: The Exiled Apr 10, 2014 $19.9923% (64%/73%)50,000 .. 100,0000%00:00 (00:00)
483 Hunters Of The Dead Sep 4, 2014 $4.9923% (64%)20,000 .. 50,0000%00:00 (00:00)
484 Battle of Empires : 1914-1918 Jul 22, 2015 $8.9923% (64%)50,000 .. 100,0001.89%01:07 (00:22)
485 Devil's Dare 悪魔の挑戦 Oct 21, 2014 $12.9923% (64%)20,000 .. 50,0000%00:00 (00:00)
486 Kings of Kung Fu Jun 25, 2015 $9.9921% (63%)20,000 .. 50,0000%00:00 (00:00)
487 Double Dragon IV Jan 30, 2017 $6.9921% (63%/50%)0 .. 20,0000%00:00 (00:00)
488 Momento Temporis: Light from the Deep Oct 27, 2016 $4.99N/A (N/A)0 .. 20,0000%00:00 (00:00)
489 Battle Worlds: Kronos Nov 4, 2013 $19.9921% (63%/71%)20,000 .. 50,0000%00:00 (00:00)
490 Pandora: First Contact May 30, 2014 $29.9921% (63%/68%)20,000 .. 50,0000%00:00 (00:00)
491 Overruled! Sep 15, 2015 $12.99N/A (N/A)20,000 .. 50,0000%00:00 (00:00)
492 A Game of Dwarves Oct 23, 2012 $9.9921% (63%/60%)50,000 .. 100,0000%00:00 (00:00)
493 Beasts Battle Jun 15, 2016 $1.99N/A (N/A)0 .. 20,0000%00:00 (00:00)
494 Operation Flashpoint: Dragon Rising Oct 6, 2009 $2.4921% (63%/76%)500,000 .. 1,000,0000.37%03:18 (03:05)
495 The Few Jun 18, 2014 $7.9921% (63%)20,000 .. 50,0000%00:00 (00:00)
496 Malebolgia May 6, 2015 $12.9921% (63%)0 .. 20,0002%03:30 (01:10)
497 Will Fight for Food: Super Actual Sellout: Game of the Hour Apr 22, 2015 $5.99N/A (N/A)0 .. 20,0000%00:00 (00:00)
498 DYNASTY WARRIORS 8 Empires Feb 26, 2015 $49.9921% (63%)20,000 .. 50,0002.94%00:01 (00:00)
499 Mytheon Dec 8, 2015 $9.9920% (62%)0 .. 20,0000%00:00 (00:00)
500 Spirit of War Mar 12, 2015 $9.99N/A (N/A)20,000 .. 50,0000%00:00 (00:00)
501 Rise: Battle Lines Nov 17, 2015 $1.99N/A (N/A)0 .. 20,0000%00:00 (00:00)
502 BloodRayne Betrayal Apr 30, 2014 $9.9920% (62%)50,000 .. 100,0000%00:00 (00:00)
503 Cuban Missile Crisis: Ice Crusade Mar 25, 2015 $4.99N/A (N/A)20,000 .. 50,0000%00:00 (00:00)
504 Sorcerer King: Rivals Sep 22, 2016 $13.4920% (62%)20,000 .. 50,0000%00:00 (00:00)
505 Desert Ashes Nov 10, 2014 $4.9920% (62%)20,000 .. 50,0000%00:00 (00:00)
506 To End All Wars Aug 29, 2014 $39.9920% (62%/71%)0 .. 20,0000%00:00 (00:00)
507 Disney Epic Mickey 2: The Power of Two Oct 6, 2014 $19.9920% (62%)20,000 .. 50,0002.56%06:31 (02:10)
508 SPACECOM Sep 17, 2014 $9.9920% (62%/68%)100,000 .. 200,0001.81%02:13 (00:55)
509 Goblin Defenders: Steel‘n’ Wood Nov 23, 2015 $2.9920% (62%)20,000 .. 50,0000%00:00 (00:00)
510 Close Combat - Gateway to Caen Jun 6, 2014 $39.9920% (62%)20,000 .. 50,0000%00:00 (00:00)
511 Goliath May 12, 2016 $11.9920% (62%/57%)0 .. 20,0000%00:00 (00:00)
512 4089: Ghost Within Jan 9, 2015 $5.9920% (62%)0 .. 20,0000%00:00 (00:00)
513 The Butterfly Sign Dec 13, 2016 $4.9920% (62%)200,000 .. 500,0000%00:00 (00:00)
514 Hyperspace Pinball Sep 30, 2015 $2.99N/A (N/A)0 .. 20,0000%00:00 (00:00)
515 Silver Bullet: Prometheus Apr 8, 2016 $4.99N/A (N/A)0 .. 20,0000%00:00 (00:00)
516 Men of War: Vietnam Sep 8, 2011 $7.9919% (61%/68%)100,000 .. 200,0000.94%00:06 (00:04)
517 Spice Road Apr 24, 2014 $19.9919% (61%)0 .. 20,0000%00:00 (00:00)
518 Omerta - City of Gangsters Jan 31, 2013 $14.9919% (61%)200,000 .. 500,0000%00:00 (00:00)
519 Kingdom Wars 2: Battles Mar 4, 2016 $13.9919% (61%)50,000 .. 100,0001.04%03:42 (01:14)
520 Bombshell Jan 29, 2016 $34.9919% (61%)20,000 .. 50,00010.14%04:00 (06:11)
521 Commando Jack Aug 22, 2014 $7.99N/A (N/A)200,000 .. 500,0000.13%02:00 (00:40)
522 Gnumz: Masters of Defense Dec 21, 2015 $4.99N/A (N/A)20,000 .. 50,0000.7%01:50 (01:13)
523 Supreme Ruler: Cold War Jul 29, 2011 $9.9919% (61%/63%)20,000 .. 50,0000%00:00 (00:00)
524 Disciples III - Renaissance Steam Special Edition Jul 16, 2010 $14.9919% (61%/56%)100,000 .. 200,0000%00:00 (00:00)
525 Freight Tycoon Inc. Apr 3, 2014 $4.9919% (61%)20,000 .. 50,0000%00:00 (00:00)
526 Call of Duty: Black Ops - Mac Edition Sep 27, 2012 $19.9919% (61%)50,000 .. 100,0001.75%00:20 (00:06)
527 Memoir '44 Online Oct 12, 2011 Free18% (60%)200,000 .. 500,0000%00:00 (00:00)
528 Nightmare on Azathoth Oct 30, 2015 $0.99N/A (N/A)0 .. 20,0000%00:00 (00:00)
529 Woolfe - The Red Hood Diaries Mar 17, 2015 $9.9918% (60%/55%)50,000 .. 100,0000.75%00:39 (00:13)
530 BLADESTORM: Nightmare May 28, 2015 $59.9918% (60%)0 .. 20,0000%00:00 (00:00)
531 Merchants of Kaidan Nov 10, 2014 $14.9918% (60%)100,000 .. 200,0000.24%00:01 (00:00)
532 Flashback Oct 1, 2013 $9.9918% (60%)20,000 .. 50,0000%00:00 (00:00)
533 BattleLore: Command Mar 31, 2015 $6.9918% (60%)0 .. 20,0000%00:00 (00:00)
534 Hybrid Wars Sep 29, 2016 $6.9918% (60%/54%)0 .. 20,0000%00:00 (00:00)
535 Eclipse: New Dawn for the Galaxy Sep 16, 2016 N/A18% (60%)0 .. 20,0000%00:00 (00:00)
536 Q*bert: Rebooted Jul 7, 2014 N/A18% (60%)0 .. 20,0000%00:00 (00:00)
537 Defend Your Crypt Jul 21, 2016 $2.99N/A (N/A)0 .. 20,0000%00:00 (00:00)
538 Sun Blast: Star Fighter Apr 2, 2015 $1.9918% (60%)100,000 .. 200,0000%00:00 (00:00)
539 The Ruins: VR Escape the Room Apr 13, 2017 $5.99N/A (N/A)0 .. 20,0000%00:00 (00:00)
540 Skyshine's BEDLAM Sep 16, 2015 $19.9917% (59%/67%)20,000 .. 50,0000%00:00 (00:00)
541 Quarantine Feb 9, 2017 $9.9917% (59%)0 .. 20,0000%00:00 (00:00)
542 E.T. Armies Mar 3, 2016 $14.9917% (59%/54%)0 .. 20,0000%00:00 (00:00)
543 Wanderlust Adventures Aug 10, 2015 $9.9917% (59%)20,000 .. 50,0000%00:00 (00:00)
544 Code of Princess Apr 14, 2016 $14.9917% (59%/53%)0 .. 20,0000%00:00 (00:00)
545 Battleplan: American Civil War Jul 4, 2014 $9.9917% (59%/66%)100,000 .. 200,0000.36%00:07 (00:04)
546 Antisquad May 22, 2014 $5.9917% (59%)50,000 .. 100,0000%00:00 (00:00)
547 Hegemony Rome: The Rise of Caesar May 15, 2014 $14.9917% (59%)50,000 .. 100,0001.61%04:31 (01:30)
548 Heavy Fire: Afghanistan Aug 15, 2014 $2.9917% (59%)20,000 .. 50,0000%00:00 (00:00)
549 Armada 2526 Gold Edition Feb 28, 2013 $19.9917% (59%/66%)20,000 .. 50,0000%00:00 (00:00)
550 Ninjahtic Mind Tricks Jul 16, 2015 $1.99N/A (N/A)0 .. 20,0000%00:00 (00:00)
551 Prospekt Feb 18, 2016 $9.9917% (59%)20,000 .. 50,0000%00:00 (00:00)
552 7 Grand Steps: What Ancients Begat Jun 7, 2013 $19.9917% (59%)100,000 .. 200,0000%00:00 (00:00)
553 Tommy Tronic Oct 28, 2010 $9.99N/A (N/A)0 .. 20,0000%00:00 (00:00)
554 Gates of Horizon Dec 18, 2014 $9.9916% (58%)0 .. 20,0008%03:32 (02:21)
555 Achron Aug 29, 2011 $19.9916% (58%/54%)0 .. 20,0000%00:00 (00:00)
556 Prophour23 Oct 22, 2014 $9.99N/A (N/A)0 .. 20,0000%00:00 (00:00)
557 Check vs Mate Aug 16, 2012 $19.9916% (58%/69%)0 .. 20,0000.79%00:01 (00:00)
558 Colonial Conquest Jul 28, 2015 $9.9916% (58%)0 .. 20,0000%00:00 (00:00)
559 Ceres Oct 16, 2015 $19.9916% (58%/74%)0 .. 20,00010%03:02 (01:00)
560 Cemetery Warrior 3 Feb 3, 2017 $0.9916% (58%)50,000 .. 100,0000%00:00 (00:00)
561 Minimum Sep 10, 2014 N/A16% (58%/69%)100,000 .. 200,0000%00:00 (00:00)
562 Revelations 2012 Apr 23, 2012 Free16% (58%)20,000 .. 50,0000%00:00 (00:00)
563 Woodle Tree 2: Worlds Sep 16, 2016 $3.9916% (58%)50,000 .. 100,0000%00:00 (00:00)
564 Sir! I'd Like To Report A Bug! Oct 19, 2015 $1.99N/A (N/A)0 .. 20,0000%00:00 (00:00)
565 Bladestar Jan 15, 2016 $9.99N/A (N/A)0 .. 20,0000%00:00 (00:00)
566 Unearthed: Trail of Ibn Battuta - Episode 1 - Gold Edition Jan 3, 2014 $4.9915% (57%)20,000 .. 50,0000%00:00 (00:00)
567 Realpolitiks Feb 16, 2017 $24.9915% (57%/52%)20,000 .. 50,0000%00:00 (00:00)
568 Assassin’s Creed Liberation HD Jan 15, 2014 $19.9915% (57%)100,000 .. 200,0002.45%17:48 (23:43)
569 Warhammer 40,000: Kill Team May 22, 2014 $9.9915% (57%)50,000 .. 100,0001.01%00:02 (00:00)
570 DreamBreak Jul 21, 2016 $6.99N/A (N/A/46%)20,000 .. 50,0000%00:00 (00:00)
571 StarDrive 2 Apr 9, 2015 $29.9914% (56%/70%)50,000 .. 100,0006.45%02:36 (01:44)
572 Super Helmets on Fire DX Ultra Edition Plus Alpha Feb 15, 2016 $0.99N/A (N/A)0 .. 20,0000%00:00 (00:00)
573 Savage Resurrection Aug 18, 2016 Free14% (56%)50,000 .. 100,0000.44%05:39 (01:53)
574 Vector Thrust Jul 2, 2015 $24.9914% (56%/57%)20,000 .. 50,0000%00:00 (00:00)
575 Stay Dead Evolution Feb 4, 2015 $5.99N/A (N/A)20,000 .. 50,0000%00:00 (00:00)
576 Fossil Echo Jul 8, 2016 $9.9914% (56%/61%)0 .. 20,0000%00:00 (00:00)
577 Abalone Apr 23, 2014 $6.9914% (56%)20,000 .. 50,0000%00:00 (00:00)
578 Marvel: Ultimate Alliance Jul 26, 2016 N/A14% (56%)20,000 .. 50,0000%00:00 (00:00)
579 Horizon Feb 6, 2014 $29.9914% (56%/58%)50,000 .. 100,0000%00:00 (00:00)
580 Delve Deeper Sep 24, 2010 $4.9914% (56%)50,000 .. 100,0000.76%00:01 (00:00)
581 Adventure World Aug 2, 2016 $4.99N/A (N/A)0 .. 20,0000%00:00 (00:00)
582 Pain Train Jan 11, 2017 $0.9913% (55%)50,000 .. 100,0001.49%10:35 (10:31)
583 Dinocide Jan 21, 2016 $9.99N/A (N/A/51%)50,000 .. 100,0000%00:00 (00:00)
584 RESCUE 2: Everyday Heroes Jun 3, 2015 $19.9913% (54%)20,000 .. 50,0007.14%01:04 (00:21)
585 Rento Fortune - Online Dice Board Game Jul 14, 2017 $4.9913% (54%)50,000 .. 100,0006.74%04:17 (03:39)
586 Ant Queen Jun 17, 2016 $3.9912% (53%)0 .. 20,0000%00:00 (00:00)
587 Virtual Rogue Apr 8, 2016 $2.99N/A (N/A)0 .. 20,0002.04%00:49 (00:16)
588 Wickland Feb 6, 2015 $0.9912% (53%)50,000 .. 100,0000%00:00 (00:00)
589 Castle Werewolf 3D Feb 7, 2017 $2.9912% (53%)50,000 .. 100,0000.44%01:58 (01:01)
590 Smugglers 5 Apr 11, 2014 $6.9912% (53%)20,000 .. 50,0000%00:00 (00:00)
591 Tic-Toc-Tower Sep 28, 2015 $2.99N/A (N/A)0 .. 20,0000%00:00 (00:00)
592 The Stalin Subway Sep 19, 2014 $3.9911% (52%)20,000 .. 50,0002.38%00:01 (00:00)
593 Dusty Revenge:Co-Op Edition Feb 17, 2014 $14.9911% (52%)50,000 .. 100,0000%00:00 (00:00)
594 Jagged Alliance Online: Reloaded Sep 24, 2015 N/A11% (52%)0 .. 20,0000%00:00 (00:00)
595 MinosMaze - The Minotaur's Labyrinth May 1, 2017 $4.99N/A (N/A)0 .. 20,0000%00:00 (00:00)
596 Meridian: Squad 22 Aug 11, 2016 $14.99N/A (N/A)0 .. 20,0000%00:00 (00:00)
597 Weather Lord: The Successor's Path May 7, 2015 $4.99N/A (N/A)0 .. 20,0000%00:00 (00:00)
598 Meridian: New World Sep 26, 2014 $6.9911% (51%/43%)100,000 .. 200,0000%00:00 (00:00)
599 Biodrone Battle Jul 16, 2015 $1.9911% (51%)100,000 .. 200,0000.4%05:07 (01:42)
600 Royal Bounty HD Aug 10, 2015 $2.9911% (51%)0 .. 20,0000%00:00 (00:00)
601 Nightside Aug 6, 2015 $4.9911% (51%)20,000 .. 50,0000%00:00 (00:00)
602 Chronostorm: Siberian Border Nov 20, 2015 $0.99N/A (N/A)0 .. 20,0000%00:00 (00:00)
603 Guncraft Aug 9, 2013 $14.9910% (50%/73%)100,000 .. 200,0000.46%00:04 (00:01)
604 Champions of Anteria Aug 30, 2016 $29.9910% (50%/67%)0 .. 20,0000%00:00 (00:00)
605 Mortos Nov 14, 2016 $1.99N/A (N/A)0 .. 20,0003.33%04:27 (02:06)
606 Scapeland Mar 31, 2016 $3.99N/A (N/A)0 .. 20,0000%00:00 (00:00)
607 Albedo: Eyes from Outer Space Apr 10, 2015 $14.999% (49%/66%)50,000 .. 100,0000%00:00 (00:00)
608 Rubber and Lead Sep 4, 2015 $4.99N/A (N/A)20,000 .. 50,0000%00:00 (00:00)
609 Star Traders: 4X Empires Dec 16, 2014 $9.99N/A (N/A)0 .. 20,0000%00:00 (00:00)
610 Synonymy Mar 5, 2015 $1.99N/A (N/A)0 .. 20,0000%00:00 (00:00)
611 Marvel: Ultimate Alliance 2 Jul 26, 2016 N/A9% (48%)0 .. 20,0000%00:00 (00:00)
612 Aegis Oct 6, 2016 $2.99N/A (N/A)0 .. 20,0000%00:00 (00:00)
613 Disposable Heroes Mar 22, 2016 $4.99N/A (N/A)20,000 .. 50,0002%03:30 (01:10)
614 Z Steel Soldiers Aug 1, 2014 $12.998% (47%)50,000 .. 100,0000%00:00 (00:00)
615 Hero Generations Apr 10, 2015 $5.998% (47%)0 .. 20,0000%00:00 (00:00)
616 Odd||Even Apr 6, 2016 $0.99N/A (N/A)20,000 .. 50,0000%00:00 (00:00)
617 The Stalin Subway: Red Veil Oct 24, 2014 $2.998% (47%)50,000 .. 100,0000%00:00 (00:00)
618 Blasting Agent: Ultimate Edition Aug 17, 2016 $2.99N/A (N/A)0 .. 20,0000%00:00 (00:00)
619 Carrier Command: Gaea Mission Sep 28, 2012 $32.998% (46%/60%)200,000 .. 500,0000%00:00 (00:00)
620 World War 2: Time of Wrath Jun 6, 2014 $4.998% (46%)20,000 .. 50,0000%00:00 (00:00)
621 Magic Quest May 6, 2016 $1.99N/A (N/A)50,000 .. 100,0000%00:00 (00:00)
622 Fabula Mortis Oct 27, 2014 $7.998% (46%)0 .. 20,0002.27%00:18 (00:06)
623 Steampunk Syndicate Apr 13, 2017 $1.998% (46%)50,000 .. 100,0000%00:00 (00:00)
624 Pride of Nations Jun 7, 2011 $19.998% (46%/70%)20,000 .. 50,0000%00:00 (00:00)
625 Megamagic: Wizards of the Neon Age Apr 20, 2016 $9.99N/A (N/A/67%)20,000 .. 50,0000%00:00 (00:00)
626 Crossfire: Dungeons May 21, 2015 $3.998% (46%)0 .. 20,0000%00:00 (00:00)
627 HitBox Jan 30, 2017 Free8% (46%)0 .. 20,0002%00:05 (00:01)
628 Last Days of Old Earth Jun 7, 2016 $24.99N/A (N/A/66%)0 .. 20,0000%00:00 (00:00)
629 Clockwork Empires Oct 26, 2016 $29.997% (45%/58%)0 .. 20,0000%00:00 (00:00)
630 Plancon: Space Conflict Aug 8, 2016 $6.99N/A (N/A)20,000 .. 50,0000%00:00 (00:00)
631 Dusk 12 Aug 22, 2014 $3.997% (45%)50,000 .. 100,0000%00:00 (00:00)
632 Skyward Collapse May 23, 2013 $0.997% (45%/64%)100,000 .. 200,0000%00:00 (00:00)
633 The Campaign Series: Fall Weiss May 30, 2014 $14.99N/A (N/A)20,000 .. 50,0000%00:00 (00:00)
634 Impire Feb 14, 2013 $19.997% (45%/45%)100,000 .. 200,0000%00:00 (00:00)
635 RYAN BLACK Jan 14, 2017 $2.99N/A (N/A)20,000 .. 50,0000%00:00 (00:00)
636 The Bluecoats: North vs South Feb 2, 2015 $4.997% (44%)20,000 .. 50,0000%00:00 (00:00)
637 Sid Meier's Starships Mar 12, 2015 $14.997% (44%/64%)200,000 .. 500,0000%00:00 (00:00)
638 Island Defense Jul 23, 2015 $1.99N/A (N/A)50,000 .. 100,0000.28%00:57 (00:19)
639 WARMACHINE: Tactics Nov 20, 2014 Free7% (44%)100,000 .. 200,0000%00:00 (00:00)
640 Redemption: Saints And Sinners Nov 18, 2016 $0.497% (44%)50,000 .. 100,0000.65%19:38 (13:05)
641 The Entente Gold Jun 16, 2014 $0.597% (43%)50,000 .. 100,0000%00:00 (00:00)
642 Dungeons Feb 10, 2011 $9.997% (43%/65%)200,000 .. 500,0000%00:00 (00:00)
643 Vendetta - Curse of Raven's Cry Nov 20, 2015 $29.997% (43%)0 .. 20,0002.44%00:01 (00:00)
644 Nux Aug 15, 2014 $6.99N/A (N/A)100,000 .. 200,0000%00:00 (00:00)
645 Burstfire Sep 24, 2015 N/A6% (42%)50,000 .. 100,0000%00:00 (00:00)
646 Samudai Feb 9, 2015 $2.996% (42%)20,000 .. 50,0000%00:00 (00:00)
647 Sword of the Stars II: Enhanced Edition Nov 30, 2012 $19.996% (42%/65%)100,000 .. 200,0000.56%13:41 (04:33)
648 Noob Squad Oct 5, 2016 $0.996% (41%)20,000 .. 50,0000%00:00 (00:00)
649 Pain Train 2 Mar 16, 2017 $0.696% (41%)0 .. 20,0004.21%01:57 (02:30)
650 Hydraulic Empire Jul 31, 2015 $7.99N/A (N/A)0 .. 20,0000%00:00 (00:00)
651 Batman: Arkham Origins Blackgate - Deluxe Edition Apr 1, 2014 $19.995% (40%)500,000 .. 1,000,0000.2%00:03 (00:01)
652 Draconian Wars Aug 28, 2014 $5.99N/A (N/A)0 .. 20,0000%00:00 (00:00)
653 The Kings' Crusade Oct 8, 2010 $9.995% (40%/71%)50,000 .. 100,0000%00:00 (00:00)
654 Knight Adventure Oct 15, 2015 $0.99N/A (N/A)50,000 .. 100,0000%00:00 (00:00)
655 Heavy Fire: Shattered Spear Oct 23, 2015 $3.99N/A (N/A)0 .. 20,0000%00:00 (00:00)
656 Strategic War in Europe Mar 21, 2014 $14.995% (40%)20,000 .. 50,0001.04%01:59 (00:39)
657 Ancient Space Sep 23, 2014 $19.995% (40%)20,000 .. 50,0000%00:00 (00:00)
658 Risk Jun 10, 2013 $9.995% (39%)20,000 .. 50,0000%00:00 (00:00)
659 Mechs & Mercs: Black Talons Jan 9, 2015 $9.995% (39%)0 .. 20,0004.35%00:40 (00:13)
660 Wave of Darkness Nov 5, 2015 $29.99N/A (N/A)0 .. 20,0000%00:00 (00:00)
661 Gratuitous Space Battles 2 Apr 16, 2015 $9.995% (39%)20,000 .. 50,0000%00:00 (00:00)
662 Villagers Mar 25, 2016 $19.995% (39%)0 .. 20,0000%00:00 (00:00)
663 Control Craft 2 Feb 15, 2016 $2.99N/A (N/A)0 .. 20,0003.45%04:04 (01:51)
664 Cossacks II: Napoleonic Wars Aug 26, 2011 $4.995% (38%)50,000 .. 100,0000%00:00 (00:00)
665 Dead But Alive! Southern England Oct 2, 2015 $14.99N/A (N/A)0 .. 20,0000%00:00 (00:00)
666 Postal III Feb 17, 2012 $11.995% (38%/24%)50,000 .. 100,0000%00:00 (00:00)
667 Lost in Paradise Aug 20, 2015 $2.99N/A (N/A)20,000 .. 50,0000%00:00 (00:00)
668 Infection: Humanity's Last Gasp May 26, 2016 $9.99N/A (N/A)0 .. 20,0001.45%03:37 (01:12)
669 Blue Sheep Mar 31, 2016 $1.99N/A (N/A)0 .. 20,0000%00:00 (00:00)
670 Zombie Apocalypse: Escape The Undead City Jun 17, 2016 $0.54% (37%)0 .. 20,0000%00:00 (00:00)
671 Tiamat X May 29, 2015 $1.99N/A (N/A)50,000 .. 100,0000%00:00 (00:00)
672 We Are Legion Aug 7, 2015 $9.994% (37%)20,000 .. 50,0000%00:00 (00:00)
673 Stellar Impact Apr 12, 2012 $9.994% (37%/74%)50,000 .. 100,0000%00:00 (00:00)
674 TAIKU MANSION Feb 13, 2017 $0.994% (36%)100,000 .. 200,0000%00:00 (00:00)
675 Nuts!: The Battle of the Bulge Feb 12, 2016 $9.99N/A (N/A)0 .. 20,0001.33%03:10 (01:03)
676 Urban Empire Jan 20, 2017 $29.994% (35%/62%)50,000 .. 100,0000%00:00 (00:00)
677 Shadows of War Jan 2, 2015 $2.994% (35%)20,000 .. 50,0000%00:00 (00:00)
678 Arma Tactics Oct 1, 2013 $8.993% (34%/47%)200,000 .. 500,0000.2%00:01 (00:00)
679 Disciples III - Resurrection Oct 11, 2011 $14.993% (34%/63%)100,000 .. 200,0000%00:00 (00:00)
680 CTU: Counter Terrorism Unit Apr 22, 2016 $1.49N/A (N/A)0 .. 20,0000%00:00 (00:00)
681 Fallen: A2P Protocol Aug 14, 2015 $9.993% (34%)20,000 .. 50,0000%00:00 (00:00)
682 CDF Ghostship Jun 26, 2015 $9.993% (33%)0 .. 20,0000%00:00 (00:00)
683 Grizzly Valley Apr 23, 2016 $4.993% (33%)0 .. 20,0000%00:00 (00:00)
684 Jagged Alliance Flashback Oct 21, 2014 $19.993% (33%)20,000 .. 50,0000%00:00 (00:00)
685 Ranger of the jungle Jul 18, 2016 $3.99N/A (N/A)0 .. 20,0000%00:00 (00:00)
686 Kick-Ass 2 Aug 15, 2014 $19.993% (33%)20,000 .. 50,0000%00:00 (00:00)
687 The Game of Life Jun 10, 2013 $9.993% (33%)0 .. 20,0000%00:00 (00:00)
688 Ku: Shroud of the Morrigan Mar 17, 2014 $4.993% (32%)20,000 .. 50,0000%00:00 (00:00)
689 A Game of Thrones - Genesis Sep 28, 2011 $9.993% (31%)100,000 .. 200,0000%00:00 (00:00)
690 Psichodelya Aug 8, 2014 $1.99N/A (N/A)100,000 .. 200,0000.3%01:32 (00:30)
691 Zombie Zoeds May 20, 2015 $2.993% (31%)200,000 .. 500,0005.6%03:25 (03:52)
692 Evopollution Apr 23, 2014 $4.993% (31%)0 .. 20,0000%00:00 (00:00)
693 Robotex Nov 19, 2014 $4.992% (30%)100,000 .. 200,0000%00:00 (00:00)
694 Hush Jul 29, 2015 $9.99N/A (N/A)0 .. 20,0000%00:00 (00:00)
695 Ground Pounders Jul 15, 2014 $4.99N/A (N/A)0 .. 20,0000%00:00 (00:00)
696 Power of Defense Aug 4, 2010 $9.99N/A (N/A)0 .. 20,0000%00:00 (00:00)
697 Defenders of Time Nov 4, 2014 N/AN/A (N/A/55%)0 .. 20,0000%00:00 (00:00)
698 Killbot Jul 10, 2016 $0.992% (29%)50,000 .. 100,0000%00:00 (00:00)
699 Abyss Raiders: Uncharted Apr 30, 2015 $4.992% (29%)20,000 .. 50,0000%00:00 (00:00)
700 Tank Operations: European Campaign Nov 22, 2013 $19.992% (29%)20,000 .. 50,0000%00:00 (00:00)
701 Zombies on a Plane Mar 25, 2016 $4.99N/A (N/A)0 .. 20,0000%00:00 (00:00)
702 Starion Tactics Sep 5, 2014 $9.99N/A (N/A)50,000 .. 100,0000%00:00 (00:00)
703 One Star Apr 17, 2017 $2.992% (25%)50,000 .. 100,0000%00:00 (00:00)
704 Hard Truck Apocalypse: Arcade / Ex Machina: Arcade Mar 14, 2014 $4.992% (25%)20,000 .. 50,0000%00:00 (00:00)
705 Elite vs. Freedom May 31, 2016 $0.842% (23%)0 .. 20,0000%00:00 (00:00)
706 Alone in the Dark: Illumination Jun 11, 2015 $19.992% (23%)0 .. 20,0000%00:00 (00:00)
707 APOX Jan 20, 2011 $14.992% (23%/48%)20,000 .. 50,0000%00:00 (00:00)
708 Lords of the Black Sun Sep 12, 2014 $29.991% (21%)20,000 .. 50,0000%00:00 (00:00)
709 The Asskickers-Steam Edition Feb 6, 2015 $9.991% (21%)0 .. 20,0000%00:00 (00:00)
710 Gemini Wars Nov 2, 2012 $14.991% (20%/53%)20,000 .. 50,0002.22%00:06 (00:02)
711 Human Extinction Simulator Jan 21, 2015 $19.99N/A (N/A)0 .. 20,0000%00:00 (00:00)
712 Tryst Sep 14, 2012 $14.99N/A (N/A/50%)0 .. 20,0000%00:00 (00:00)
713 Project Pulsation Dec 15, 2015 $4.99N/A (N/A)200,000 .. 500,0000%00:00 (00:00)
714 Once Bitten, Twice Dead! Jul 7, 2015 $4.99N/A (N/A)20,000 .. 50,0000%00:00 (00:00)
715 Citadels Jul 25, 2013 $14.991% (13%/20%)20,000 .. 50,0000%00:00 (00:00)
716 Iron Soul Feb 26, 2014 $4.991% (5%)0 .. 20,0002.86%03:41 (01:13)
717 Bloodbath Jun 16, 2014 $14.99N/A (N/A)0 .. 20,0000%00:00 (00:00)

Tags over time:

Access restricted.

This feature is only available to users with special access rights. Sorry.

If you want to proceed, you need to register or log in first and then back Steam Spy on Patreon. Look for Indie or Pro pledge.

Don't forget to use the same email as on Steam Spy!

Owners of this game also own:

Access restricted.

This feature is only available to users with special access rights. Sorry.

If you want to proceed, you need to register or log in first and then back Steam Spy on Patreon. Look for Indie or Pro pledge.

Don't forget to use the same email as on Steam Spy!

Playtime distribution:

Access restricted.

This feature is only available to users with special access rights. Sorry.

If you want to proceed, you need to register or log in first and then back Steam Spy on Patreon. Look for Indie or Pro pledge.

Don't forget to use the same email as on Steam Spy!

Playtime (2 weeks):

Access restricted.

This feature is only available to users with special access rights. Sorry.

If you want to proceed, you need to register or log in first and then back Steam Spy on Patreon. Look for Indie or Pro pledge.

Don't forget to use the same email as on Steam Spy!

User reviews:

Login required.

Please register or log in to see this information.